Time,TemperatureF,DewpointF,PressureIn,WindDirection,WindDirectionDegrees,WindSpeedMPH,WindSpeedGustMPH,Humidity,HourlyPrecipIn,Conditions,Clouds,dailyrainin,SoftwareType,DateUTC
2013-04-19 00:12:00,53.2,44.8,29.94,SE,135,0.0,-999.0,73,-99.99,,,0.00,Acu-Link.com,2013-04-19 07:12:00,
2013-04-19 00:27:00,52.9,44.5,29.95,ENE,67,0.0,-999.0,73,-99.99,,,0.00,Acu-Link.com,2013-04-19 07:27:00,
2013-04-19 00:43:00,52.7,44.3,29.95,ESE,112,0.0,-999.0,73,-99.99,,,0.00,Acu-Link.com,2013-04-19 07:43:00,
2013-04-19 00:58:00,52.3,43.5,29.95,SSW,202,0.0,-999.0,72,-99.99,,,0.00,Acu-Link.com,2013-04-19 07:58:00,
2013-04-19 01:13:00,52.0,43.6,29.95,ESE,112,0.0,-999.0,73,-99.99,,,0.00,Acu-Link.com,2013-04-19 08:13:00,
2013-04-19 01:28:00,51.4,42.7,29.95,East,90,0.0,-999.0,72,-99.99,,,0.00,Acu-Link.com,2013-04-19 08:28:00,
2013-04-19 01:44:00,51.4,43.4,29.94,South,180,0.0,-999.0,74,-99.99,,,0.00,Acu-Link.com,2013-04-19 08:44:00,
2013-04-19 01:59:00,51.1,43.5,29.94,South,180,0.0,-999.0,75,-99.99,,,0.00,Acu-Link.com,2013-04-19 08:59:00,
2013-04-19 02:14:00,50.4,43.1,29.94,SE,135,0.0,-999.0,76,-99.99,,,0.00,Acu-Link.com,2013-04-19 09:14:00,
2013-04-19 02:29:00,50.0,43.1,29.94,East,90,0.0,-999.0,77,-99.99,,,0.00,Acu-Link.com,2013-04-19 09:29:00,
2013-04-19 02:44:00,50.4,43.8,29.94,ESE,112,0.0,-999.0,78,-99.99,,,0.00,Acu-Link.com,2013-04-19 09:44:00,
2013-04-19 03:00:00,50.0,43.7,29.94,SE,135,0.0,-999.0,79,-99.99,,,0.00,Acu-Link.com,2013-04-19 10:00:00,
2013-04-19 03:15:00,49.3,44.0,29.94,East,90,0.0,-999.0,82,-99.99,,,0.00,Acu-Link.com,2013-04-19 10:15:00,
2013-04-19 03:30:00,49.3,44.0,29.94,SSW,202,0.0,-999.0,82,-99.99,,,0.00,Acu-Link.com,2013-04-19 10:30:00,
2013-04-19 03:45:00,49.3,45.0,29.94,SE,135,0.0,-999.0,85,-99.99,,,0.00,Acu-Link.com,2013-04-19 10:45:00,
2013-04-19 04:00:00,49.5,45.2,29.95,SSE,157,0.0,-999.0,85,-99.99,,,0.00,Acu-Link.com,2013-04-19 11:00:00,
2013-04-19 04:16:00,48.9,44.9,29.95,ESE,112,0.0,-999.0,86,-99.99,,,0.00,Acu-Link.com,2013-04-19 11:16:00,
2013-04-19 04:31:00,48.7,44.7,29.95,ESE,112,0.0,-999.0,86,-99.99,,,0.00,Acu-Link.com,2013-04-19 11:31:00,
2013-04-19 04:46:00,48.6,44.6,29.95,SSE,157,0.0,-999.0,86,-99.99,,,0.00,Acu-Link.com,2013-04-19 11:46:00,
2013-04-19 05:01:00,48.7,43.8,29.96,South,180,0.0,-999.0,83,-99.99,,,0.00,Acu-Link.com,2013-04-19 12:01:00,
2013-04-19 05:16:00,48.2,43.9,29.95,SE,135,0.0,-999.0,85,-99.99,,,0.00,Acu-Link.com,2013-04-19 12:16:00,
2013-04-19 05:32:00,47.8,43.8,29.94,West,270,0.0,-999.0,86,-99.99,,,0.00,Acu-Link.com,2013-04-19 12:32:00,
2013-04-19 05:47:00,47.7,43.7,29.95,South,180,0.0,-999.0,86,-99.99,,,0.00,Acu-Link.com,2013-04-19 12:47:00,
2013-04-19 06:02:00,48.7,44.4,29.96,South,180,0.0,-999.0,85,-99.99,,,0.00,Acu-Link.com,2013-04-19 13:02:00,
2013-04-19 06:17:00,48.6,44.0,29.96,South,180,0.0,-999.0,84,-99.99,,,0.00,Acu-Link.com,2013-04-19 13:17:00,
2013-04-19 06:32:00,47.7,43.7,29.97,SSE,157,0.0,-999.0,86,-99.99,,,0.00,Acu-Link.com,2013-04-19 13:32:00,
2013-04-19 06:48:00,47.7,43.7,29.96,ESE,112,0.0,-999.0,86,-99.99,,,0.00,Acu-Link.com,2013-04-19 13:48:00,
2013-04-19 07:03:00,48.0,43.7,29.97,SSW,202,0.0,-999.0,85,-99.99,,,0.00,Acu-Link.com,2013-04-19 14:03:00,
2013-04-19 07:18:00,48.0,43.7,29.97,SE,135,0.0,-999.0,85,-99.99,,,0.00,Acu-Link.com,2013-04-19 14:18:00,
2013-04-19 07:33:00,48.2,44.5,29.97,NNE,22,0.0,-999.0,87,-99.99,,,0.00,Acu-Link.com,2013-04-19 14:33:00,
2013-04-19 07:49:00,48.7,44.7,29.98,ESE,112,0.0,-999.0,86,-99.99,,,0.00,Acu-Link.com,2013-04-19 14:49:00,
2013-04-19 08:04:00,49.6,44.7,29.99,WNW,292,0.0,-999.0,83,-99.99,,,0.00,Acu-Link.com,2013-04-19 15:04:00,
2013-04-19 08:19:00,50.5,45.2,29.99,East,90,0.0,-999.0,82,-99.99,,,0.00,Acu-Link.com,2013-04-19 15:19:00,
2013-04-19 08:34:00,52.5,45.8,29.99,East,90,0.0,-999.0,78,-99.99,,,0.00,Acu-Link.com,2013-04-19 15:34:00,
2013-04-19 08:49:00,54.9,46.8,29.97,SSE,157,0.0,-999.0,74,-99.99,,,0.00,Acu-Link.com,2013-04-19 15:49:00,
2013-04-19 09:05:00,55.9,48.1,29.98,West,270,1.7,-999.0,75,-99.99,,,0.00,Acu-Link.com,2013-04-19 16:05:00,
2013-04-19 09:20:00,58.1,48.0,29.98,SSW,202,1.7,-999.0,69,-99.99,,,0.00,Acu-Link.com,2013-04-19 16:20:00,
2013-04-19 09:35:00,59.4,48.4,29.98,WNW,292,3.2,-999.0,67,-99.99,,,0.00,Acu-Link.com,2013-04-19 16:35:00,
2013-04-19 09:50:00,61.0,49.1,29.98,West,270,0.0,-999.0,65,-99.99,,,0.00,Acu-Link.com,2013-04-19 16:50:00,
2013-04-19 10:05:00,62.4,49.2,29.98,North,0,0.0,-999.0,62,-99.99,,,0.00,Acu-Link.com,2013-04-19 17:05:00,
2013-04-19 10:21:00,64.9,49.8,29.98,NE,45,3.7,-999.0,58,-99.99,,,0.00,Acu-Link.com,2013-04-19 17:21:00,
2013-04-19 10:36:00,64.8,49.7,29.97,ESE,112,2.2,-999.0,58,-99.99,,,0.00,Acu-Link.com,2013-04-19 17:36:00,
2013-04-19 10:51:00,65.3,49.7,29.98,NNE,22,2.7,-999.0,57,-99.99,,,0.00,Acu-Link.com,2013-04-19 17:51:00,
2013-04-19 11:06:00,67.5,50.8,29.97,NE,45,3.2,-999.0,55,-99.99,,,0.00,Acu-Link.com,2013-04-19 18:06:00,
2013-04-19 11:21:00,67.8,51.0,29.97,North,0,0.0,-999.0,55,-99.99,,,0.00,Acu-Link.com,2013-04-19 18:21:00,
2013-04-19 11:37:00,69.4,50.5,29.96,ENE,67,0.0,-999.0,51,-99.99,,,0.00,Acu-Link.com,2013-04-19 18:37:00,
2013-04-19 11:52:00,70.5,51.0,29.96,NE,45,3.2,-999.0,50,-99.99,,,0.00,Acu-Link.com,2013-04-19 18:52:00,
2013-04-19 12:07:00,71.8,51.6,29.96,NNW,337,1.7,-999.0,49,-99.99,,,0.00,Acu-Link.com,2013-04-19 19:07:00,
2013-04-19 12:22:00,73.0,52.1,29.95,ENE,67,2.7,-999.0,48,-99.99,,,0.00,Acu-Link.com,2013-04-19 19:22:00,
2013-04-19 12:38:00,73.0,51.0,29.94,NE,45,2.7,-999.0,46,-99.99,,,0.00,Acu-Link.com,2013-04-19 19:38:00,
2013-04-19 12:53:00,75.0,51.0,29.94,SE,135,2.2,-999.0,43,-99.99,,,0.00,Acu-Link.com,2013-04-19 19:53:00,
2013-04-19 13:08:00,75.0,49.7,29.93,ENE,67,4.2,-999.0,41,-99.99,,,0.00,Acu-Link.com,2013-04-19 20:08:00,
2013-04-19 13:23:00,75.9,51.1,29.92,NNE,22,1.7,-999.0,42,-99.99,,,0.00,Acu-Link.com,2013-04-19 20:23:00,
2013-04-19 13:38:00,76.5,51.0,29.92,SSW,202,3.2,-999.0,41,-99.99,,,0.00,Acu-Link.com,2013-04-19 20:38:00,
2013-04-19 13:54:00,77.7,50.8,29.92,West,270,0.0,-999.0,39,-99.99,,,0.00,Acu-Link.com,2013-04-19 20:54:00,
2013-04-19 14:09:00,78.4,50.7,29.90,SSE,157,2.7,-999.0,38,-99.99,,,0.00,Acu-Link.com,2013-04-19 21:09:00,
2013-04-19 14:24:00,78.6,52.2,29.89,West,270,2.2,-999.0,40,-99.99,,,0.00,Acu-Link.com,2013-04-19 21:24:00,
2013-04-19 14:39:00,77.7,51.4,29.89,SSW,202,3.7,-999.0,40,-99.99,,,0.00,Acu-Link.com,2013-04-19 21:39:00,
2013-04-19 14:54:00,77.9,51.6,29.87,NNE,22,4.2,-999.0,40,-99.99,,,0.00,Acu-Link.com,2013-04-19 21:54:00,
2013-04-19 15:10:00,77.0,51.5,29.87,West,270,2.2,-999.0,41,-99.99,,,0.00,Acu-Link.com,2013-04-19 22:10:00,
2013-04-19 15:25:00,77.5,51.9,29.87,SW,225,1.7,-999.0,41,-99.99,,,0.00,Acu-Link.com,2013-04-19 22:25:00,
2013-04-19 15:40:00,79.9,52.7,29.86,South,180,2.2,-999.0,39,-99.99,,,0.00,Acu-Link.com,2013-04-19 22:40:00,
2013-04-19 15:55:00,80.2,52.3,29.85,NNE,22,6.3,-999.0,38,-99.99,,,0.00,Acu-Link.com,2013-04-19 22:55:00,
2013-04-19 16:10:00,79.0,47.4,29.85,WSW,247,8.3,-999.0,33,-99.99,,,0.00,Acu-Link.com,2013-04-19 23:10:00,
2013-04-19 16:26:00,79.3,45.2,29.84,West,270,7.3,-999.0,30,-99.99,,,0.00,Acu-Link.com,2013-04-19 23:26:00,
2013-04-19 16:41:00,78.3,46.8,29.84,West,270,8.9,-999.0,33,-99.99,,,0.00,Acu-Link.com,2013-04-19 23:41:00,
2013-04-19 16:56:00,77.7,47.1,29.84,NW,315,14.0,-999.0,34,-99.99,,,0.00,Acu-Link.com,2013-04-19 23:56:00,
2013-04-19 17:11:00,75.6,46.7,29.83,WSW,247,16.6,-999.0,36,-99.99,,,0.00,Acu-Link.com,2013-04-20 00:11:00,
2013-04-19 17:27:00,75.4,46.6,29.82,SW,225,11.4,-999.0,36,-99.99,,,0.00,Acu-Link.com,2013-04-20 00:27:00,
2013-04-19 17:42:00,73.9,46.0,29.82,West,270,12.5,-999.0,37,-99.99,,,0.00,Acu-Link.com,2013-04-20 00:42:00,
2013-04-19 17:57:00,73.2,46.1,29.81,SSW,202,12.5,-999.0,38,-99.99,,,0.00,Acu-Link.com,2013-04-20 00:57:00,
2013-04-19 18:12:00,72.0,45.7,29.80,WSW,247,6.8,-999.0,39,-99.99,,,0.00,Acu-Link.com,2013-04-20 01:12:00,
2013-04-19 18:27:00,72.1,46.4,29.80,West,270,8.3,-999.0,40,-99.99,,,0.00,Acu-Link.com,2013-04-20 01:27:00,
2013-04-19 18:43:00,71.1,46.2,29.81,WNW,292,6.8,-999.0,41,-99.99,,,0.00,Acu-Link.com,2013-04-20 01:43:00,
2013-04-19 18:58:00,71.2,46.3,29.82,West,270,8.9,-999.0,41,-99.99,,,0.00,Acu-Link.com,2013-04-20 01:58:00,
2013-04-19 19:13:00,69.8,46.3,29.81,SW,225,7.3,-999.0,43,-99.99,,,0.00,Acu-Link.com,2013-04-20 02:13:00,
2013-04-19 19:28:00,67.6,46.1,29.81,West,270,8.3,-999.0,46,-99.99,,,0.00,Acu-Link.com,2013-04-20 02:28:00,
2013-04-19 19:43:00,66.0,46.3,29.80,West,270,7.3,-999.0,49,-99.99,,,0.00,Acu-Link.com,2013-04-20 02:43:00,
2013-04-19 19:59:00,64.9,46.3,29.82,West,270,9.9,-999.0,51,-99.99,,,0.00,Acu-Link.com,2013-04-20 02:59:00,
2013-04-19 20:14:00,64.4,46.9,29.81,West,270,7.3,-999.0,53,-99.99,,,0.00,Acu-Link.com,2013-04-20 03:14:00,
2013-04-19 20:29:00,63.9,46.9,29.82,SW,225,6.8,-999.0,54,-99.99,,,0.00,Acu-Link.com,2013-04-20 03:29:00,
2013-04-19 20:44:00,63.5,46.6,29.82,SW,225,5.8,-999.0,54,-99.99,,,0.00,Acu-Link.com,2013-04-20 03:44:00,
2013-04-19 20:59:00,62.6,46.7,29.83,NW,315,9.4,-999.0,56,-99.99,,,0.00,Acu-Link.com,2013-04-20 03:59:00,
2013-04-19 21:15:00,63.0,46.6,29.82,WNW,292,6.8,-999.0,55,-99.99,,,0.00,Acu-Link.com,2013-04-20 04:15:00,
2013-04-19 21:30:00,63.1,46.2,29.83,WSW,247,6.3,-999.0,54,-99.99,,,0.00,Acu-Link.com,2013-04-20 04:30:00,
2013-04-19 21:45:00,61.5,46.1,29.83,WSW,247,4.2,-999.0,57,-99.99,,,0.00,Acu-Link.com,2013-04-20 04:45:00,
2013-04-19 22:01:00,60.6,46.2,29.83,West,270,11.4,-999.0,59,-99.99,,,0.00,Acu-Link.com,2013-04-20 05:01:00,
2013-04-19 22:16:00,61.0,46.1,29.83,West,270,2.2,-999.0,58,-99.99,,,0.00,Acu-Link.com,2013-04-20 05:16:00,
2013-04-19 22:31:00,60.6,45.7,29.83,NNW,337,3.7,-999.0,58,-99.99,,,0.00,Acu-Link.com,2013-04-20 05:31:00,
2013-04-19 22:46:00,59.4,45.9,29.82,WNW,292,4.2,-999.0,61,-99.99,,,0.00,Acu-Link.com,2013-04-20 05:46:00,
2013-04-19 23:02:00,58.8,45.8,29.83,NNE,22,2.7,-999.0,62,-99.99,,,0.00,Acu-Link.com,2013-04-20 06:02:00,
2013-04-19 23:17:00,57.7,45.6,29.83,SW,225,5.3,-999.0,64,-99.99,,,0.00,Acu-Link.com,2013-04-20 06:17:00,
2013-04-19 23:32:00,57.9,45.4,29.83,NW,315,5.8,-999.0,63,-99.99,,,0.00,Acu-Link.com,2013-04-20 06:32:00,
2013-04-19 23:47:00,57.6,45.1,29.82,ENE,67,6.3,-999.0,63,-99.99,,,0.00,Acu-Link.com,2013-04-20 06:47:00,